Time;durP1;ratioP1;P1;durP2;ratioP2;P2;SDS_P1;SDS_P2;PMS_P1;PMS_P2;Temp;Humidity;BMP_temperature;BMP_pressure;BME280_temperature;BME280_humidity;BME280_pressure;Samples;Min_cycle;Max_cycle;Signal;HPM_P1;HPM_P2
2023/01/03 00:00:29;0.00;0.00;0.62;0.00;0.00;0.62;1.70;0.90;;;25.90;28.60;;;;;;2259482;61;20360;-65
2023/01/03 00:03:16;0.00;0.00;0.62;0.00;0.00;0.62;1.43;0.70;;;25.90;28.70;;;;;;2259614;61;20400;-65
2023/01/03 00:06:02;0.00;0.00;0.62;0.00;0.00;0.62;1.60;0.90;;;25.90;28.70;;;;;;2259279;61;20518;-67
2023/01/03 00:08:48;0.00;0.00;0.62;0.00;0.00;0.62;1.30;0.70;;;25.90;28.80;;;;;;2259444;61;20422;-67
2023/01/03 00:14:42;0.00;0.00;0.62;0.00;0.00;0.62;1.43;0.70;;;25.90;28.80;;;;;;2258604;61;20454;-61
2023/01/03 00:17:27;0.00;0.00;0.62;0.00;0.00;0.62;1.60;1.00;;;25.90;28.80;;;;;;2259718;61;20780;-65
2023/01/03 00:20:12;0.00;0.00;0.62;0.00;0.00;0.62;1.60;0.93;;;25.90;28.80;;;;;;2258860;61;20380;-65
2023/01/03 00:22:58;0.00;0.00;0.62;0.00;0.00;0.62;1.30;0.70;;;25.90;28.80;;;;;;2258851;61;20364;-68
2023/01/03 00:25:43;0.00;0.00;0.62;0.00;0.00;0.62;1.57;1.00;;;25.90;28.80;;;;;;2255804;61;20544;-67
2023/01/03 00:28:28;0.00;0.00;0.62;0.00;0.00;0.62;1.60;0.90;;;25.90;28.80;;;;;;2255154;61;20362;-67
2023/01/03 00:31:12;0.00;0.00;0.62;0.00;0.00;0.62;1.60;0.80;;;25.90;28.80;;;;;;2255369;61;20412;-65
2023/01/03 00:33:58;0.00;0.00;0.62;0.00;0.00;0.62;1.30;0.70;;;25.90;28.80;;;;;;2254987;61;20422;-68
2023/01/03 00:36:43;0.00;0.00;0.62;0.00;0.00;0.62;1.50;0.70;;;25.90;28.80;;;;;;2255509;61;20440;-68
2023/01/03 00:39:29;0.00;0.00;0.62;0.00;0.00;0.62;1.30;0.80;;;25.90;28.90;;;;;;2255389;61;20968;-66
2023/01/03 00:42:14;0.00;0.00;0.62;0.00;0.00;0.62;1.50;0.73;;;25.90;28.90;;;;;;2255168;61;20414;-61
2023/01/03 00:44:58;0.00;0.00;0.62;0.00;0.00;0.62;1.30;0.70;;;25.90;28.90;;;;;;2255007;61;20437;-65
2023/01/03 00:47:43;0.00;0.00;0.62;0.00;0.00;0.62;1.30;0.70;;;25.90;28.90;;;;;;2255828;61;20408;-65
2023/01/03 00:50:28;0.00;0.00;0.62;0.00;0.00;0.62;1.30;0.80;;;25.90;28.90;;;;;;2254550;61;20791;-65
2023/01/03 00:53:13;0.00;0.00;0.62;0.00;0.00;0.62;2.30;0.87;;;25.90;28.80;;;;;;2255189;61;20369;-65
2023/01/03 00:56:03;0.00;0.00;0.62;0.00;0.00;0.62;1.40;0.70;;;25.90;28.80;;;;;;2255723;61;20381;-65
2023/01/03 00:58:49;0.00;0.00;0.62;0.00;0.00;0.62;1.43;0.70;;;25.90;28.80;;;;;;2255655;61;20396;-65
2023/01/03 01:01:36;0.00;0.00;0.62;0.00;0.00;0.62;1.40;0.77;;;25.90;28.80;;;;;;2255673;61;20401;-66
2023/01/03 01:04:24;0.00;0.00;0.62;0.00;0.00;0.62;1.30;0.73;;;25.90;28.70;;;;;;2254881;61;20390;-64
2023/01/03 01:07:09;0.00;0.00;0.62;0.00;0.00;0.62;1.40;0.90;;;25.90;28.70;;;;;;2255373;61;20426;-65
2023/01/03 01:09:54;0.00;0.00;0.62;0.00;0.00;0.62;1.30;0.70;;;25.90;28.70;;;;;;2255863;61;20440;-64
2023/01/03 01:12:42;0.00;0.00;0.62;0.00;0.00;0.62;1.33;0.70;;;25.90;28.80;;;;;;2254491;61;20369;-65
2023/01/03 01:15:27;0.00;0.00;0.62;0.00;0.00;0.62;1.33;0.73;;;25.90;28.80;;;;;;2254872;61;20429;-66
2023/01/03 01:18:12;0.00;0.00;0.62;0.00;0.00;0.62;1.30;0.70;;;25.90;28.80;;;;;;2255712;61;20416;-67
2023/01/03 01:20:57;0.00;0.00;0.62;0.00;0.00;0.62;1.30;0.80;;;25.90;28.80;;;;;;2255831;61;20892;-67
2023/01/03 01:23:46;0.00;0.00;0.62;0.00;0.00;0.62;1.93;0.80;;;25.90;28.80;;;;;;2255402;61;20359;-67
2023/01/03 01:26:31;0.00;0.00;0.62;0.00;0.00;0.62;1.50;0.70;;;25.90;28.90;;;;;;2268575;61;20412;-67
2023/01/03 01:29:17;0.00;0.00;0.62;0.00;0.00;0.62;1.57;0.70;;;25.90;28.90;;;;;;2255912;61;21129;-65
2023/01/03 01:32:02;0.00;0.00;0.62;0.00;0.00;0.62;1.30;0.70;;;25.90;28.90;;;;;;2256129;61;20396;-66
2023/01/03 01:34:50;0.00;0.00;0.62;0.00;0.00;0.62;1.40;0.73;;;25.90;28.90;;;;;;2255444;61;20815;-65
2023/01/03 01:37:35;0.00;0.00;0.62;0.00;0.00;0.62;1.53;0.77;;;25.90;28.80;;;;;;2256649;61;20389;-65
2023/01/03 01:40:20;0.00;0.00;0.62;0.00;0.00;0.62;1.40;0.70;;;25.90;28.80;;;;;;2257157;61;20358;-64
2023/01/03 01:46:26;0.00;0.00;0.62;0.00;0.00;0.62;1.27;0.67;;;25.90;28.80;;;;;;2256253;61;20376;-69
2023/01/03 01:49:15;0.00;0.00;0.62;0.00;0.00;0.62;1.60;0.90;;;25.90;28.80;;;;;;2255267;61;20362;-69
2023/01/03 01:52:04;0.00;0.00;0.62;0.00;0.00;0.62;1.60;0.97;;;25.90;28.70;;;;;;2256049;61;20397;-67
2023/01/03 01:54:51;0.00;0.00;0.62;0.00;0.00;0.62;1.40;0.70;;;25.90;28.70;;;;;;2256339;61;20412;-69
2023/01/03 01:57:37;0.00;0.00;0.62;0.00;0.00;0.62;1.40;0.90;;;25.90;28.70;;;;;;2255894;61;20365;-69
2023/01/03 02:00:23;0.00;0.00;0.62;0.00;0.00;0.62;2.00;0.90;;;25.90;28.60;;;;;;2255941;61;20880;-69
2023/01/03 02:03:10;0.00;0.00;0.62;0.00;0.00;0.62;1.50;0.90;;;25.80;28.40;;;;;;2255431;61;20389;-69
2023/01/03 02:05:56;0.00;0.00;0.62;0.00;0.00;0.62;2.63;1.40;;;25.80;28.40;;;;;;2255120;61;20382;-70
2023/01/03 02:08:53;0.00;0.00;0.62;0.00;0.00;0.62;1.80;1.10;;;25.80;28.30;;;;;;2255150;61;20946;-69
2023/01/03 02:11:50;0.00;0.00;0.62;0.00;0.00;0.62;1.77;0.87;;;25.80;28.30;;;;;;2255030;61;20368;-69
2023/01/03 02:14:49;0.00;0.00;0.62;0.00;0.00;0.62;2.37;1.40;;;25.80;28.20;;;;;;2255554;61;20482;-69
2023/01/03 02:17:44;0.00;0.00;0.62;0.00;0.00;0.62;2.03;1.13;;;25.70;28.10;;;;;;2255526;61;20442;-69
2023/01/03 02:20:50;0.00;0.00;0.62;0.00;0.00;0.62;1.80;1.07;;;25.70;28.10;;;;;;2255803;61;20941;-69
2023/01/03 02:24:11;0.00;0.00;0.62;0.00;0.00;0.62;1.60;1.10;;;25.70;28.10;;;;;;2255876;61;20404;-70
2023/01/03 02:27:07;0.00;0.00;0.62;0.00;0.00;0.62;1.73;0.93;;;25.60;28.00;;;;;;2277861;61;20366;-71
2023/01/03 02:30:36;0.00;0.00;0.62;0.00;0.00;0.62;1.53;1.00;;;25.60;27.90;;;;;;2255819;61;20446;-70
2023/01/03 02:33:34;0.00;0.00;0.62;0.00;0.00;0.62;2.40;1.53;;;25.60;27.90;;;;;;2255197;61;20361;-70
2023/01/03 02:36:28;0.00;0.00;0.62;0.00;0.00;0.62;1.70;0.97;;;25.50;27.80;;;;;;2255860;61;20413;-70
2023/01/03 02:39:24;0.00;0.00;0.62;0.00;0.00;0.62;2.07;1.00;;;25.50;27.80;;;;;;2256000;61;20779;-69
2023/01/03 02:45:35;0.00;0.00;0.62;0.00;0.00;0.62;1.90;1.10;;;25.50;27.80;;;;;;2255816;61;21126;-69
2023/01/03 02:48:33;0.00;0.00;0.62;0.00;0.00;0.62;1.67;1.17;;;25.40;27.70;;;;;;2255497;61;20929;-69
2023/01/03 02:51:24;0.00;0.00;0.62;0.00;0.00;0.62;1.90;0.97;;;25.40;27.60;;;;;;2255743;61;20906;-69
2023/01/03 02:54:16;0.00;0.00;0.62;0.00;0.00;0.62;2.00;1.20;;;25.40;27.60;;;;;;2255861;61;20390;-69
2023/01/03 02:57:05;0.00;0.00;0.62;0.00;0.00;0.62;4.10;1.53;;;25.30;27.60;;;;;;2255802;61;20769;-71
2023/01/03 02:59:55;0.00;0.00;0.62;0.00;0.00;0.62;1.83;1.10;;;25.30;27.60;;;;;;2256034;61;20412;-70
2023/01/03 03:02:50;0.00;0.00;0.62;0.00;0.00;0.62;1.93;1.17;;;25.30;27.60;;;;;;2255185;61;20366;-70
2023/01/03 03:05:44;0.00;0.00;0.62;0.00;0.00;0.62;2.70;1.30;;;25.20;27.50;;;;;;2255691;61;20382;-70
2023/01/03 03:08:29;0.00;0.00;0.62;0.00;0.00;0.62;2.10;1.00;;;25.20;27.50;;;;;;2256063;61;20910;-70
2023/01/03 03:14:22;0.00;0.00;0.62;0.00;0.00;0.62;1.93;1.40;;;25.20;27.50;;;;;;2255231;61;20392;-70
2023/01/03 03:17:14;0.00;0.00;0.62;0.00;0.00;0.62;2.67;1.17;;;25.10;27.40;;;;;;2255519;61;20446;-70
2023/01/03 03:26:19;0.00;0.00;0.62;0.00;0.00;0.62;2.43;1.10;;;25.00;27.30;;;;;;2255417;61;20420;-69
2023/01/03 03:29:11;0.00;0.00;0.62;0.00;0.00;0.62;2.47;1.27;;;25.00;27.50;;;;;;2255148;61;20425;-70
2023/01/03 03:31:56;0.00;0.00;0.62;0.00;0.00;0.62;2.80;1.37;;;25.00;27.30;;;;;;2255377;61;20365;-70
2023/01/03 03:34:43;0.00;0.00;0.62;0.00;0.00;0.62;2.80;1.60;;;25.00;27.40;;;;;;2255369;61;20448;-70
2023/01/03 03:37:34;0.00;0.00;0.62;0.00;0.00;0.62;2.07;1.30;;;25.00;27.30;;;;;;2255959;61;20366;-70
2023/01/03 03:46:43;0.00;0.00;0.62;0.00;0.00;0.62;2.13;1.47;;;24.90;27.30;;;;;;2255329;61;20462;-71
2023/01/03 03:49:38;0.00;0.00;0.62;0.00;0.00;0.62;2.63;1.40;;;24.80;27.20;;;;;;2255309;61;20417;-69
2023/01/03 03:52:27;0.00;0.00;0.62;0.00;0.00;0.62;2.17;1.30;;;24.80;27.20;;;;;;2255803;61;20397;-70
2023/01/03 03:55:20;0.00;0.00;0.62;0.00;0.00;0.62;2.97;1.30;;;24.80;27.20;;;;;;2255144;61;20393;-70
2023/01/03 03:58:08;0.00;0.00;0.62;0.00;0.00;0.62;1.87;1.30;;;24.70;27.10;;;;;;2255560;61;20366;-70
2023/01/03 04:00:54;0.00;0.00;0.62;0.00;0.00;0.62;2.00;1.43;;;24.70;27.00;;;;;;2255737;61;20451;-70
2023/01/03 04:03:42;0.00;0.00;0.62;0.00;0.00;0.62;1.80;1.30;;;24.70;27.00;;;;;;2255660;61;20378;-70
2023/01/03 04:06:34;0.00;0.00;0.62;0.00;0.00;0.62;2.43;1.60;;;24.70;27.00;;;;;;2255761;61;20366;-70
2023/01/03 04:09:19;0.00;0.00;0.62;0.00;0.00;0.62;1.93;1.40;;;24.60;27.00;;;;;;2255161;61;20925;-70
2023/01/03 04:12:06;0.00;0.00;0.62;0.00;0.00;0.62;2.13;1.40;;;24.60;27.00;;;;;;2255400;61;20366;-70
2023/01/03 04:14:53;0.00;0.00;0.62;0.00;0.00;0.62;2.60;1.70;;;24.60;27.00;;;;;;2255519;61;20398;-70
2023/01/03 04:17:38;0.00;0.00;0.62;0.00;0.00;0.62;1.70;1.20;;;24.60;27.00;;;;;;2254808;61;20358;-69
2023/01/03 04:20:23;0.00;0.00;0.62;0.00;0.00;0.62;2.50;1.27;;;24.50;26.90;;;;;;2255456;61;20362;-69
2023/01/03 04:23:08;0.00;0.00;0.62;0.00;0.00;0.62;2.73;1.30;;;24.50;26.90;;;;;;2255566;61;20362;-69
2023/01/03 04:25:34;0.00;0.00;0.62;0.00;0.00;0.62;2.33;1.20;;;24.50;26.90;;;;;;2255056;61;20378;-69
2023/01/03 04:28:02;0.00;0.00;0.62;0.00;0.00;0.62;2.30;1.50;;;24.50;27.00;;;;;;2255292;61;20386;-68
2023/01/03 04:30:28;0.00;0.00;0.62;0.00;0.00;0.62;2.87;1.77;;;24.50;26.90;;;;;;2255809;61;20359;-69
2023/01/03 04:32:55;0.00;0.00;0.62;0.00;0.00;0.62;1.70;1.20;;;24.50;26.90;;;;;;2255155;61;20358;-69
2023/01/03 04:35:22;0.00;0.00;0.62;0.00;0.00;0.62;2.33;1.50;;;24.40;26.90;;;;;;2255277;61;20857;-69
2023/01/03 04:37:48;0.00;0.00;0.62;0.00;0.00;0.62;2.13;1.30;;;24.40;26.90;;;;;;2255816;61;20369;-69
2023/01/03 04:40:15;0.00;0.00;0.62;0.00;0.00;0.62;2.47;1.33;;;24.40;26.90;;;;;;2254762;61;20449;-68
2023/01/03 04:45:27;0.00;0.00;0.62;0.00;0.00;0.62;2.83;1.40;;;24.40;26.90;;;;;;2251300;61;20479;-69
2023/01/03 04:47:53;0.00;0.00;0.62;0.00;0.00;0.62;2.90;1.87;;;24.40;26.90;;;;;;2252814;61;20454;-70
2023/01/03 04:50:20;0.00;0.00;0.62;0.00;0.00;0.62;2.20;1.60;;;24.30;26.80;;;;;;2255389;61;20351;-70
2023/01/03 04:52:46;0.00;0.00;0.62;0.00;0.00;0.62;1.93;1.60;;;24.30;26.80;;;;;;2255241;61;20453;-69
2023/01/03 04:55:12;0.00;0.00;0.62;0.00;0.00;0.62;2.33;1.40;;;24.30;26.80;;;;;;2255007;61;20906;-69
2023/01/03 04:57:39;0.00;0.00;0.62;0.00;0.00;0.62;1.97;1.33;;;24.30;26.90;;;;;;2254744;61;20436;-70
2023/01/03 05:00:07;0.00;0.00;0.62;0.00;0.00;0.62;3.80;1.77;;;24.30;26.90;;;;;;2254472;61;20706;-69
2023/01/03 05:02:35;0.00;0.00;0.62;0.00;0.00;0.62;2.10;1.43;;;24.20;26.80;;;;;;2253422;61;20367;-70
2023/01/03 05:05:04;0.00;0.00;0.62;0.00;0.00;0.62;2.17;1.33;;;24.20;26.80;;;;;;2253673;61;20379;-70
2023/01/03 05:07:30;0.00;0.00;0.62;0.00;0.00;0.62;1.93;1.47;;;24.20;26.80;;;;;;2253851;61;20478;-70
2023/01/03 05:09:56;0.00;0.00;0.62;0.00;0.00;0.62;1.77;1.50;;;24.20;26.90;;;;;;2253856;61;20353;-70
2023/01/03 05:12:23;0.00;0.00;0.62;0.00;0.00;0.62;2.57;1.93;;;24.20;26.90;;;;;;2253965;61;20355;-70
2023/01/03 05:14:49;0.00;0.00;0.62;0.00;0.00;0.62;2.70;1.47;;;24.20;26.90;;;;;;2254264;61;20401;-70
2023/01/03 05:17:20;0.00;0.00;0.62;0.00;0.00;0.62;3.63;1.33;;;24.10;26.80;;;;;;2253712;61;20347;-70
2023/01/03 05:28:32;0.00;0.00;0.62;0.00;0.00;0.62;2.27;1.47;;;24.10;26.80;;;;;;2254339;61;20412;-70
2023/01/03 05:31:17;0.00;0.00;0.62;0.00;0.00;0.62;2.70;1.43;;;24.00;26.80;;;;;;2253972;61;20416;-70
2023/01/03 05:34:05;0.00;0.00;0.62;0.00;0.00;0.62;3.27;1.73;;;24.00;26.80;;;;;;2253290;61;20409;-70
2023/01/03 05:36:51;0.00;0.00;0.62;0.00;0.00;0.62;1.73;1.30;;;24.00;26.80;;;;;;2254515;61;20413;-70
2023/01/03 05:39:36;0.00;0.00;0.62;0.00;0.00;0.62;2.00;1.40;;;24.00;26.80;;;;;;2253890;61;20370;-70
2023/01/03 05:42:21;0.00;0.00;0.62;0.00;0.00;0.62;2.23;1.70;;;24.00;27.30;;;;;;2254089;61;20366;-70
2023/01/03 05:45:08;0.00;0.00;0.62;0.00;0.00;0.62;1.87;1.17;;;24.00;26.80;;;;;;2253738;61;20447;-69
2023/01/03 05:47:56;0.00;0.00;0.62;0.00;0.00;0.62;2.00;1.60;;;24.00;26.80;;;;;;2254064;61;20820;-70
2023/01/03 05:50:44;0.00;0.00;0.62;0.00;0.00;0.62;2.53;1.63;;;24.00;26.80;;;;;;2253789;61;21021;-70
2023/01/03 05:53:32;0.00;0.00;0.62;0.00;0.00;0.62;1.93;1.43;;;23.90;26.70;;;;;;2253719;61;20794;-70
2023/01/03 05:56:17;0.00;0.00;0.62;0.00;0.00;0.62;2.42;1.50;;;23.90;26.80;;;;;;2253334;61;20358;-71
2023/01/03 05:59:02;0.00;0.00;0.62;0.00;0.00;0.62;2.67;1.77;;;23.90;26.80;;;;;;2254569;61;20238;-71
2023/01/03 06:01:47;0.00;0.00;0.62;0.00;0.00;0.62;2.73;1.90;;;23.90;26.80;;;;;;2253877;61;20504;-71
2023/01/03 06:04:35;0.00;0.00;0.62;0.00;0.00;0.62;2.10;1.57;;;23.90;26.70;;;;;;2253982;61;20468;-71
2023/01/03 06:07:19;0.00;0.00;0.62;0.00;0.00;0.62;1.70;1.10;;;23.90;26.70;;;;;;2253824;61;20364;-70
2023/01/03 06:10:08;0.00;0.00;0.62;0.00;0.00;0.62;2.50;1.90;;;23.90;26.70;;;;;;2253478;61;20743;-69
2023/01/03 06:12:56;0.00;0.00;0.62;0.00;0.00;0.62;3.53;1.77;;;23.90;26.70;;;;;;2253720;61;20906;-70
2023/01/03 06:15:41;0.00;0.00;0.62;0.00;0.00;0.62;3.03;1.60;;;23.90;27.20;;;;;;2254234;61;20416;-69
2023/01/03 06:18:26;0.00;0.00;0.62;0.00;0.00;0.62;1.87;1.50;;;23.80;26.60;;;;;;2254190;61;20370;-69
2023/01/03 06:21:11;0.00;0.00;0.62;0.00;0.00;0.62;2.03;1.33;;;23.80;26.60;;;;;;2254812;61;20476;-69
2023/01/03 06:23:59;0.00;0.00;0.62;0.00;0.00;0.62;2.00;1.50;;;23.80;26.60;;;;;;2254228;61;20365;-69
2023/01/03 06:26:49;0.00;0.00;0.62;0.00;0.00;0.62;2.70;1.80;;;23.80;26.70;;;;;;2253950;61;20779;-69
2023/01/03 06:29:38;0.00;0.00;0.62;0.00;0.00;0.62;2.27;1.73;;;23.80;26.70;;;;;;2254347;61;20412;-69
2023/01/03 06:32:23;0.00;0.00;0.62;0.00;0.00;0.62;2.37;1.70;;;23.80;26.60;;;;;;2254433;61;20362;-69
2023/01/03 06:35:12;0.00;0.00;0.62;0.00;0.00;0.62;2.50;1.90;;;23.80;26.70;;;;;;2254760;61;20439;-69
2023/01/03 06:37:57;0.00;0.00;0.62;0.00;0.00;0.62;2.00;1.60;;;23.70;26.60;;;;;;2253804;61;20401;-69
2023/01/03 06:40:47;0.00;0.00;0.62;0.00;0.00;0.62;2.33;1.67;;;23.80;26.70;;;;;;2254442;61;20874;-69
2023/01/03 06:43:33;0.00;0.00;0.62;0.00;0.00;0.62;2.27;1.53;;;23.70;26.60;;;;;;2254705;61;20472;-69
2023/01/03 06:55:33;0.00;0.00;0.62;0.00;0.00;0.62;3.97;1.83;;;23.70;26.60;;;;;;2254472;61;20393;-69
2023/01/03 06:58:18;0.00;0.00;0.62;0.00;0.00;0.62;2.30;1.83;;;23.60;26.60;;;;;;2254428;61;20835;-69
2023/01/03 07:01:08;0.00;0.00;0.62;0.00;0.00;0.62;2.30;1.60;;;23.60;26.60;;;;;;2254502;61;20413;-69
2023/01/03 07:03:53;0.00;0.00;0.62;0.00;0.00;0.62;2.90;2.27;;;23.60;26.60;;;;;;2254633;61;20370;-69
2023/01/03 07:06:40;0.00;0.00;0.62;0.00;0.00;0.62;2.83;1.60;;;23.60;26.60;;;;;;2254381;61;20837;-69
2023/01/03 07:09:26;0.00;0.00;0.62;0.00;0.00;0.62;2.47;1.83;;;23.60;26.60;;;;;;2254579;61;20366;-69
2023/01/03 07:15:16;0.00;0.00;0.62;0.00;0.00;0.62;3.73;2.10;;;23.60;26.60;;;;;;2254198;61;20392;-69
2023/01/03 07:18:03;0.00;0.00;0.62;0.00;0.00;0.62;3.20;2.03;;;23.60;26.60;;;;;;2254634;61;20898;-69
2023/01/03 07:20:48;0.00;0.00;0.62;0.00;0.00;0.62;2.30;1.80;;;23.50;26.50;;;;;;2254669;61;20818;-69
2023/01/03 07:23:33;0.00;0.00;0.62;0.00;0.00;0.62;2.50;1.90;;;23.60;26.60;;;;;;2254603;61;20451;-69
2023/01/03 07:26:19;0.00;0.00;0.62;0.00;0.00;0.62;2.90;1.80;;;23.50;26.50;;;;;;2254512;61;20494;-69
2023/01/03 07:29:06;0.00;0.00;0.62;0.00;0.00;0.62;2.73;1.97;;;23.50;26.50;;;;;;2254251;61;20420;-69
2023/01/03 07:31:51;0.00;0.00;0.62;0.00;0.00;0.62;3.00;2.30;;;23.50;26.50;;;;;;2254345;61;20866;-69
2023/01/03 07:34:38;0.00;0.00;0.62;0.00;0.00;0.62;3.33;2.40;;;23.50;26.50;;;;;;2254032;61;20464;-69
2023/01/03 07:37:22;0.00;0.00;0.62;0.00;0.00;0.62;2.93;1.83;;;23.50;26.50;;;;;;2253493;61;20374;-69
2023/01/03 07:40:09;0.00;0.00;0.62;0.00;0.00;0.62;2.97;2.10;;;23.50;26.50;;;;;;2254071;61;20897;-68
2023/01/03 07:45:57;0.00;0.00;0.62;0.00;0.00;0.62;3.13;2.10;;;23.40;26.50;;;;;;2253936;61;20429;-68
2023/01/03 07:48:43;0.00;0.00;0.62;0.00;0.00;0.62;2.50;2.10;;;23.40;26.50;;;;;;2257235;61;20388;-69
2023/01/03 07:51:29;0.00;0.00;0.62;0.00;0.00;0.62;2.20;1.80;;;23.40;26.50;;;;;;2257063;61;20454;-67
2023/01/03 07:54:14;0.00;0.00;0.62;0.00;0.00;0.62;2.67;1.90;;;23.40;26.50;;;;;;2253694;61;20752;-69
2023/01/03 07:56:59;0.00;0.00;0.62;0.00;0.00;0.62;3.30;2.20;;;23.30;26.50;;;;;;2253602;61;20461;-65
2023/01/03 07:59:44;0.00;0.00;0.62;0.00;0.00;0.62;3.00;1.93;;;23.40;26.40;;;;;;2252496;61;20390;-65
2023/01/03 08:02:29;0.00;0.00;0.62;0.00;0.00;0.62;2.77;2.30;;;23.40;26.40;;;;;;2253976;61;20782;-65
2023/01/03 08:05:13;0.00;0.00;0.62;0.00;0.00;0.62;2.40;2.10;;;23.40;26.40;;;;;;2254056;61;20384;-67
2023/01/03 08:08:00;0.00;0.00;0.62;0.00;0.00;0.62;2.70;2.50;;;23.40;26.40;;;;;;2254482;61;20566;-65
2023/01/03 08:13:49;0.00;0.00;0.62;0.00;0.00;0.62;4.60;2.40;;;23.30;26.30;;;;;;2253980;61;20357;-60
2023/01/03 08:16:33;0.00;0.00;0.62;0.00;0.00;0.62;3.10;2.40;;;23.30;26.30;;;;;;2253093;61;20401;-64
2023/01/03 08:19:18;0.00;0.00;0.62;0.00;0.00;0.62;2.80;1.97;;;23.20;26.80;;;;;;2254493;61;20365;-62
2023/01/03 08:22:03;0.00;0.00;0.62;0.00;0.00;0.62;2.37;2.03;;;23.20;26.40;;;;;;2254135;61;20882;-65
2023/01/03 08:24:49;0.00;0.00;0.62;0.00;0.00;0.62;2.70;2.03;;;23.20;26.40;;;;;;2253729;61;20562;-64
2023/01/03 08:27:34;0.00;0.00;0.62;0.00;0.00;0.62;2.50;2.27;;;23.20;26.40;;;;;;2254023;61;20524;-66
2023/01/03 08:30:21;0.00;0.00;0.62;0.00;0.00;0.62;2.93;2.27;;;23.10;26.40;;;;;;2254269;61;20881;-63
2023/01/03 08:33:11;0.00;0.00;0.62;0.00;0.00;0.62;2.50;2.07;;;23.10;26.40;;;;;;2254416;61;20792;-66
2023/01/03 08:36:02;0.00;0.00;0.62;0.00;0.00;0.62;2.53;2.07;;;23.10;26.40;;;;;;2254543;61;20445;-66
2023/01/03 08:38:54;0.00;0.00;0.62;0.00;0.00;0.62;2.40;2.13;;;23.10;26.50;;;;;;2256645;61;20366;-66
2023/01/03 08:41:45;0.00;0.00;0.62;0.00;0.00;0.62;2.13;1.93;;;23.10;26.50;;;;;;2254736;61;20771;-66
2023/01/03 08:44:30;0.00;0.00;0.62;0.00;0.00;0.62;3.57;2.50;;;23.10;26.50;;;;;;2253679;61;21526;-68
2023/01/03 08:47:15;0.00;0.00;0.62;0.00;0.00;0.62;3.37;2.20;;;23.10;26.50;;;;;;2254675;61;20366;-66
2023/01/03 08:50:01;0.00;0.00;0.62;0.00;0.00;0.62;2.27;1.83;;;23.10;26.50;;;;;;2254742;61;20565;-65
2023/01/03 08:52:45;0.00;0.00;0.62;0.00;0.00;0.62;5.33;2.43;;;23.10;26.50;;;;;;2254083;61;20412;-66
2023/01/03 08:55:30;0.00;0.00;0.62;0.00;0.00;0.62;2.70;2.40;;;23.10;26.50;;;;;;2254633;61;20409;-66
2023/01/03 08:58:17;0.00;0.00;0.62;0.00;0.00;0.62;2.47;1.90;;;23.10;26.50;;;;;;2253717;61;20374;-62
2023/01/03 09:01:03;0.00;0.00;0.62;0.00;0.00;0.62;2.70;2.10;;;23.00;26.50;;;;;;2253280;61;20767;-67
2023/01/03 09:03:48;0.00;0.00;0.62;0.00;0.00;0.62;2.60;2.20;;;23.10;26.50;;;;;;2254304;61;20421;-66
2023/01/03 09:06:33;0.00;0.00;0.62;0.00;0.00;0.62;2.47;2.17;;;23.10;26.60;;;;;;2253942;61;20362;-68
2023/01/03 09:09:18;0.00;0.00;0.62;0.00;0.00;0.62;3.20;2.47;;;23.10;26.60;;;;;;2254924;61;20408;-61
2023/01/03 09:12:03;0.00;0.00;0.62;0.00;0.00;0.62;2.77;2.27;;;23.10;26.60;;;;;;2255103;61;20429;-68
2023/01/03 09:14:49;0.00;0.00;0.62;0.00;0.00;0.62;2.90;2.50;;;23.10;26.60;;;;;;2252409;61;20444;-62
2023/01/03 09:17:34;0.00;0.00;0.62;0.00;0.00;0.62;2.37;1.97;;;23.10;26.60;;;;;;2255428;61;20366;-64
2023/01/03 09:20:19;0.00;0.00;0.62;0.00;0.00;0.62;2.37;1.93;;;23.10;27.10;;;;;;2255458;61;20366;-66
2023/01/03 09:23:05;0.00;0.00;0.62;0.00;0.00;0.62;2.50;2.20;;;23.20;26.60;;;;;;2254744;61;20470;-66
2023/01/03 09:25:50;0.00;0.00;0.62;0.00;0.00;0.62;3.07;2.40;;;23.20;26.60;;;;;;2251125;61;20386;-65
2023/01/03 09:28:36;0.00;0.00;0.62;0.00;0.00;0.62;2.57;2.30;;;23.20;26.60;;;;;;2253352;61;20393;-68
2023/01/03 09:31:22;0.00;0.00;0.62;0.00;0.00;0.62;3.10;2.40;;;23.20;26.60;;;;;;2259975;61;20407;-67
2023/01/03 09:34:09;0.00;0.00;0.62;0.00;0.00;0.62;2.67;2.00;;;23.20;26.60;;;;;;2260576;61;20381;-65
2023/01/03 09:36:54;0.00;0.00;0.62;0.00;0.00;0.62;3.33;3.00;;;23.20;26.50;;;;;;2255424;61;20823;-67
2023/01/03 09:39:41;0.00;0.00;0.62;0.00;0.00;0.62;3.07;2.57;;;23.30;26.50;;;;;;2255547;61;20509;-64
2023/01/03 09:45:33;0.00;0.00;0.62;0.00;0.00;0.62;3.97;3.27;;;23.30;26.50;;;;;;2256154;61;20425;-66
2023/01/03 09:48:33;0.00;0.00;0.62;0.00;0.00;0.62;2.87;2.57;;;23.30;26.40;;;;;;2256821;61;20428;-66
2023/01/03 10:04:07;0.00;0.00;0.62;0.00;0.00;0.62;2.60;2.20;;;23.40;26.40;;;;;;2333781;53;20354;-62
2023/01/03 10:07:05;0.00;0.00;0.62;0.00;0.00;0.62;3.60;3.30;;;23.40;26.50;;;;;;2255113;61;20814;-63
2023/01/03 10:09:59;0.00;0.00;0.62;0.00;0.00;0.62;3.13;2.83;;;23.40;26.40;;;;;;2256324;61;20396;-63
2023/01/03 10:12:58;0.00;0.00;0.62;0.00;0.00;0.62;3.60;2.90;;;23.40;26.20;;;;;;2255955;61;20366;-65
2023/01/03 10:15:54;0.00;0.00;0.62;0.00;0.00;0.62;3.20;2.90;;;23.40;26.30;;;;;;2255647;61;20436;-65
2023/01/03 10:19:05;0.00;0.00;0.62;0.00;0.00;0.62;4.07;3.10;;;23.40;26.20;;;;;;2255180;61;20444;-66
2023/01/03 10:22:04;0.00;0.00;0.62;0.00;0.00;0.62;2.57;2.37;;;23.50;26.30;;;;;;2255268;61;20365;-62
2023/01/03 10:24:58;0.00;0.00;0.62;0.00;0.00;0.62;2.90;2.30;;;23.50;26.30;;;;;;2254236;61;20382;-62
2023/01/03 10:27:46;0.00;0.00;0.62;0.00;0.00;0.62;2.97;2.67;;;23.50;26.30;;;;;;2255174;61;20397;-62
2023/01/03 10:30:50;0.00;0.00;0.62;0.00;0.00;0.62;2.90;2.47;;;23.50;26.40;;;;;;2254963;61;20937;-62
2023/01/03 10:33:39;0.00;0.00;0.62;0.00;0.00;0.62;5.20;2.87;;;23.60;26.40;;;;;;2254999;61;20455;-61
2023/01/03 10:36:25;0.00;0.00;0.62;0.00;0.00;0.62;3.07;2.77;;;23.60;26.40;;;;;;2255149;61;20510;-62
2023/01/03 10:39:10;0.00;0.00;0.62;0.00;0.00;0.62;4.03;3.30;;;23.60;26.30;;;;;;2255792;61;20390;-64
2023/01/03 10:41:58;0.00;0.00;0.62;0.00;0.00;0.62;4.17;3.43;;;23.60;26.20;;;;;;2255363;61;20396;-65
2023/01/03 10:44:58;0.00;0.00;0.62;0.00;0.00;0.62;3.13;2.87;;;23.60;26.10;;;;;;2478646;53;20363;-65
2023/01/03 10:47:56;0.00;0.00;0.62;0.00;0.00;0.62;3.70;3.40;;;23.60;26.00;;;;;;2253522;61;20946;-65
2023/01/03 10:50:41;0.00;0.00;0.62;0.00;0.00;0.62;4.63;3.90;;;23.60;25.90;;;;;;2260152;61;20907;-62
2023/01/03 10:53:28;0.00;0.00;0.62;0.00;0.00;0.62;3.67;3.20;;;23.60;25.80;;;;;;2255452;61;20425;-66
2023/01/03 10:56:16;0.00;0.00;0.62;0.00;0.00;0.62;3.70;3.40;;;23.60;25.70;;;;;;2254551;61;20402;-64
2023/01/03 10:59:14;0.00;0.00;0.62;0.00;0.00;0.62;3.30;2.80;;;23.60;25.60;;;;;;2278137;61;20901;-64
2023/01/03 11:02:15;0.00;0.00;0.62;0.00;0.00;0.62;4.80;3.40;;;23.60;25.60;;;;;;2255107;61;20406;-63
2023/01/03 11:05:15;0.00;0.00;0.62;0.00;0.00;0.62;3.90;3.30;;;23.60;26.10;;;;;;2259452;61;20462;-64
2023/01/03 11:08:04;0.00;0.00;0.62;0.00;0.00;0.62;4.63;2.80;;;23.60;25.50;;;;;;2254817;61;20381;-64
2023/01/03 11:10:57;0.00;0.00;0.62;0.00;0.00;0.62;4.10;2.80;;;23.60;25.50;;;;;;2255122;61;20953;-63
2023/01/03 11:13:42;0.00;0.00;0.62;0.00;0.00;0.62;4.40;3.10;;;23.60;25.40;;;;;;2255747;61;20450;-65
2023/01/03 11:16:31;0.00;0.00;0.62;0.00;0.00;0.62;4.40;3.43;;;23.70;25.40;;;;;;2259542;61;20436;-66
2023/01/03 11:19:17;0.00;0.00;0.62;0.00;0.00;0.62;3.50;3.00;;;23.70;25.30;;;;;;2258967;61;20474;-65
2023/01/03 11:22:15;0.00;0.00;0.62;0.00;0.00;0.62;3.80;2.63;;;23.70;25.20;;;;;;2260752;61;20424;-66
2023/01/03 11:25:42;0.00;0.00;0.62;0.00;0.00;0.62;4.03;2.83;;;23.70;25.60;;;;;;2258783;61;20410;-65
2023/01/03 11:28:53;0.00;0.00;0.62;0.00;0.00;0.62;3.17;2.87;;;23.70;25.00;;;;;;2254817;61;20921;-63
2023/01/03 11:31:50;0.00;0.00;0.62;0.00;0.00;0.62;2.27;1.83;;;23.70;25.00;;;;;;2253631;61;20393;-64
2023/01/03 11:35:02;0.00;0.00;0.62;0.00;0.00;0.62;2.73;1.93;;;23.80;25.30;;;;;;2254139;61;20598;-67
2023/01/03 11:37:56;0.00;0.00;0.62;0.00;0.00;0.62;3.17;2.10;;;23.80;25.40;;;;;;2254671;61;20384;-64
2023/01/03 11:40:48;0.00;0.00;0.62;0.00;0.00;0.62;3.03;1.93;;;23.90;25.50;;;;;;2254289;61;20370;-65
2023/01/03 11:43:55;0.00;0.00;0.62;0.00;0.00;0.62;2.47;1.77;;;23.90;25.60;;;;;;2485014;53;20413;-65
2023/01/03 11:46:56;0.00;0.00;0.62;0.00;0.00;0.62;2.33;1.60;;;23.90;25.70;;;;;;2251180;61;20378;-64
2023/01/03 11:49:54;0.00;0.00;0.62;0.00;0.00;0.62;2.33;1.97;;;24.00;25.80;;;;;;2250942;61;20776;-63
2023/01/03 11:52:48;0.00;0.00;0.62;0.00;0.00;0.62;2.33;2.03;;;24.00;25.80;;;;;;2250975;61;20394;-68
2023/01/03 11:55:52;0.00;0.00;0.62;0.00;0.00;0.62;3.10;2.40;;;24.10;25.90;;;;;;2251051;61;20498;-64
2023/01/03 11:59:03;0.00;0.00;0.62;0.00;0.00;0.62;3.10;2.33;;;24.10;25.90;;;;;;2268548;61;20936;-64
2023/01/03 12:02:44;0.00;0.00;0.62;0.00;0.00;0.62;2.87;2.17;;;24.10;25.90;;;;;;2255808;61;20445;-63
2023/01/03 12:05:49;0.00;0.00;0.62;0.00;0.00;0.62;2.50;2.13;;;24.20;25.90;;;;;;2256207;61;20381;-63
2023/01/03 12:09:05;0.00;0.00;0.62;0.00;0.00;0.62;3.70;2.27;;;24.30;26.00;;;;;;2259197;61;20365;-63
2023/01/03 12:12:42;0.00;0.00;0.62;0.00;0.00;0.62;3.40;2.00;;;24.30;26.00;;;;;;2258858;61;20367;-62